WetterOnline ( https://www.wetteronline.de )

Wetter aktuell Zickhusen

Aktuelles Wetter: Boltenhagen (17m)

6-stündlich | Neueste Meldungen
Ortszeit Temperatur Wetter
So, 25.10. 13:00 14.9° C bedeckt
So, 25.10. 7:00 13.2° C bedeckt
So, 25.10. 2:00 13.4° C bedeckt
Sa, 24.10. 20:00 12.4° C bewölkt
Sa, 24.10. 14:00 14.7° C leicht bewölkt
Sa, 24.10. 8:00 12.3° C bewölkt
Sa, 24.10. 2:00 11.1° C bewölkt
Fr, 23.10. 20:00 9.9° C fast wolkenlos
Ortszeit Temperatur Wetter
So, 25.10. 18:30 12.1° C leichter Regen
So, 25.10. 18:20 12.1° C leichter Regen
So, 25.10. 18:10 12.1° C leichter Regen
So, 25.10. 18:00 12.1° C leichter Regen
So, 25.10. 17:50 12.1° C leichter Regen
So, 25.10. 17:40 12.2° C leichter Regen
So, 25.10. 17:30 12.3° C leichter Regen
So, 25.10. 17:00 12.6° C leichter Regen
Ortszeit Relative Feuchte Sichtweite
So, 25.10. 13:00 72% >70 km
So, 25.10. 7:00 78% 40 km
So, 25.10. 2:00 80% 35 km
Sa, 24.10. 20:00 94% 16 km
Sa, 24.10. 14:00 64% 40 km
Sa, 24.10. 8:00 86% 20 km
Sa, 24.10. 2:00 95% 5.0 km
Fr, 23.10. 20:00 93% 13 km
Ortszeit Relative Feuchte Sichtweite
So, 25.10. 18:30 95% 13 km
So, 25.10. 18:20 95% -
So, 25.10. 18:10 95% -
So, 25.10. 18:00 95% 25 km
So, 25.10. 17:50 95% -
So, 25.10. 17:40 94% -
So, 25.10. 17:30 95% 10 km
So, 25.10. 17:00 95% 5.0 km
Ortszeit Niederschlagsmenge Niederschlagsart
So, 25.10. 13:00 0.0 l/m2 in 6 Std. -
So, 25.10. 7:00 0.0 l/m2 in 12 Std. -
So, 25.10. 2:00 0.0 l/m2 in 6 Std. -
Sa, 24.10. 20:00 0.1 l/m2 in 12 Std. Regen
Sa, 24.10. 14:00 0.1 l/m2 in 6 Std. Regen
Sa, 24.10. 8:00 0.0 l/m2 in 12 Std. -
Sa, 24.10. 2:00 0.0 l/m2 in 6 Std. -
Fr, 23.10. 20:00 0.0 l/m2 in 12 Std. -
Ortszeit Niederschlagsmenge Niederschlagsart
So, 25.10. 18:30 0.9 l/m2 in 1 Std. -
So, 25.10. 18:20 keine Meldung -
So, 25.10. 18:10 keine Meldung -
So, 25.10. 18:00 2.2 l/m2 in 1 Std. Regen
So, 25.10. 17:50 keine Meldung -
So, 25.10. 17:40 keine Meldung -
So, 25.10. 17:30 1.4 l/m2 in 1 Std. -
So, 25.10. 17:00 1.6 l/m2 in 1 Std. Regen
Ortszeit Stärke Spitze Richtung
km/h Bft. km/h Grad Sektor
So, 25.10. 13:00 26 4 48 180° S
So, 25.10. 7:00 22 4 40 180° S
So, 25.10. 2:00 22 4 35 180° S
Sa, 24.10. 20:00 13 3 39 190° S
Sa, 24.10. 14:00 22 4 50 240° SW
Sa, 24.10. 8:00 17 3 31 230° SW
Sa, 24.10. 2:00 14 3 29 210° SW
Fr, 23.10. 20:00 11 2 29 220° SW
Ortszeit Stärke Spitze Richtung
km/h Bft. km/h Grad Sektor
So, 25.10. 18:30 14 3 25 180° S
So, 25.10. 18:20 14 3 - 180° S
So, 25.10. 18:10 14 3 - 190° S
So, 25.10. 18:00 15 3 28 200° S
So, 25.10. 17:50 15 3 - 200° S
So, 25.10. 17:40 15 3 - 200° S
So, 25.10. 17:30 17 3 28 190° S
So, 25.10. 17:00 11 2 25 190° S
Ortszeit Untergrenze Bedeckung Gattung
total tief tief mittel hoch
So, 25.10. 13:00 3300 m 8/8 8/8 - - -
So, 25.10. 7:00 990 m 8/8 8/8 - - -
So, 25.10. 2:00 1110 m 8/8 8/8 - - -
Sa, 24.10. 20:00 720 m 7/8 7/8 - - -
Sa, 24.10. 14:00 9000 m 5/8 0/8 - - -
Sa, 24.10. 8:00 660 m 7/8 7/8 - - -
Sa, 24.10. 2:00 330 m 7/8 6/8 - - -
Fr, 23.10. 20:00 4800 m 1/8 1/8 - - -
Ortszeit Bedeckungsgrad in Achtel und Wolkenuntergrenze
So, 25.10. 18:30 4(780m) 7(900m) 7(1800m)
So, 25.10. 18:20 4(780m) 7(900m) 7(1800m)
So, 25.10. 18:10 7(840m) 8(1050m)
So, 25.10. 18:00 5(990m) 8(1800m)
So, 25.10. 17:50 5(990m) 8(1800m)
So, 25.10. 17:40 3(1080m) 8(1800m)
So, 25.10. 17:30 2(870m) 6(1080m) 7(1800m)
So, 25.10. 17:00 3(870m) 4(1500m) 7(2100m)
Ortszeit Luftdruck NN (hPa) Tendenz (hPa in 3 Std.)
So, 25.10. 13:00 1003 - 1,0
So, 25.10. 7:00 1004 - 1,2
So, 25.10. 2:00 1007 - 1,4
Sa, 24.10. 20:00 1010 - 0,6
Sa, 24.10. 14:00 1010 + 0,3
Sa, 24.10. 8:00 1009 + 0,9
Sa, 24.10. 2:00 1009 0,0
Fr, 23.10. 20:00 1009 - 0,7
Ortszeit Luftdruck NN (hPa) Tendenz (hPa in 3 Std.)
So, 25.10. 18:30 1003 - 0,2
So, 25.10. 18:20 1003 keine Meldung
So, 25.10. 18:10 1003 keine Meldung
So, 25.10. 18:00 1003 - 0,1
So, 25.10. 17:50 1003 keine Meldung
So, 25.10. 17:40 1003 keine Meldung
So, 25.10. 17:30 1003 + 0,1
So, 25.10. 17:00 1003 + 0,4
Ortszeit Schneehöhe (cm)
So, 25.10. 13:00 0
So, 25.10. 7:00 0
So, 25.10. 2:00 0
Sa, 24.10. 20:00 0
Sa, 24.10. 14:00 0
Sa, 24.10. 8:00 0
Sa, 24.10. 2:00 0
Fr, 23.10. 20:00 0
Ortszeit Schneehöhe (cm)
So, 25.10. 18:30 0
So, 25.10. 18:20 0
So, 25.10. 18:10 0
So, 25.10. 18:00 0
So, 25.10. 17:50 0
So, 25.10. 17:40 0
So, 25.10. 17:30 0
So, 25.10. 17:00 0
Link zu dieser Seite / Seite empfehlen

Das Wetter in ...